sensor_id;sensor_type;location;lat;lon;timestamp;temperature;humidity
16441;DHT22;8330;-33.858;151.184;2023-06-14T00:00:30;16.20;99.90
16441;DHT22;8330;-33.858;151.184;2023-06-14T00:03:02;16.30;99.90
16441;DHT22;8330;-33.858;151.184;2023-06-14T00:05:34;16.20;99.90
16441;DHT22;8330;-33.858;151.184;2023-06-14T00:08:08;16.30;99.90
16441;DHT22;8330;-33.858;151.184;2023-06-14T00:10:40;16.50;99.90
16441;DHT22;8330;-33.858;151.184;2023-06-14T00:13:13;16.50;99.90
16441;DHT22;8330;-33.858;151.184;2023-06-14T00:15:48;16.60;99.90
16441;DHT22;8330;-33.858;151.184;2023-06-14T00:18:21;16.60;99.90
16441;DHT22;8330;-33.858;151.184;2023-06-14T00:20:57;16.70;99.90
16441;DHT22;8330;-33.858;151.184;2023-06-14T00:23:30;16.60;99.90
16441;DHT22;8330;-33.858;151.184;2023-06-14T00:26:02;16.70;99.90
16441;DHT22;8330;-33.858;151.184;2023-06-14T00:28:34;16.80;99.90
16441;DHT22;8330;-33.858;151.184;2023-06-14T00:31:10;16.90;99.90
16441;DHT22;8330;-33.858;151.184;2023-06-14T00:33:41;16.90;99.90
16441;DHT22;8330;-33.858;151.184;2023-06-14T00:36:14;16.90;99.90
16441;DHT22;8330;-33.858;151.184;2023-06-14T00:38:46;17.00;99.90
16441;DHT22;8330;-33.858;151.184;2023-06-14T00:41:17;17.10;99.90
16441;DHT22;8330;-33.858;151.184;2023-06-14T00:43:50;17.10;99.90
16441;DHT22;8330;-33.858;151.184;2023-06-14T00:46:26;17.10;99.80
16441;DHT22;8330;-33.858;151.184;2023-06-14T00:49:00;17.10;99.80
16441;DHT22;8330;-33.858;151.184;2023-06-14T00:51:32;17.10;98.30
16441;DHT22;8330;-33.858;151.184;2023-06-14T00:54:04;17.10;97.10
16441;DHT22;8330;-33.858;151.184;2023-06-14T00:56:36;17.10;95.30
16441;DHT22;8330;-33.858;151.184;2023-06-14T00:59:08;17.00;95.80
16441;DHT22;8330;-33.858;151.184;2023-06-14T01:01:44;17.10;96.00
16441;DHT22;8330;-33.858;151.184;2023-06-14T01:04:18;17.20;94.80
16441;DHT22;8330;-33.858;151.184;2023-06-14T01:06:54;17.30;94.00
16441;DHT22;8330;-33.858;151.184;2023-06-14T01:09:37;17.40;94.40
16441;DHT22;8330;-33.858;151.184;2023-06-14T01:12:13;17.70;94.30
16441;DHT22;8330;-33.858;151.184;2023-06-14T01:14:47;17.70;93.00
16441;DHT22;8330;-33.858;151.184;2023-06-14T01:17:23;17.80;92.10
16441;DHT22;8330;-33.858;151.184;2023-06-14T01:19:55;17.80;92.60
16441;DHT22;8330;-33.858;151.184;2023-06-14T01:22:27;17.70;92.20
16441;DHT22;8330;-33.858;151.184;2023-06-14T01:25:02;17.70;91.80
16441;DHT22;8330;-33.858;151.184;2023-06-14T01:27:33;17.80;91.50
16441;DHT22;8330;-33.858;151.184;2023-06-14T01:30:07;17.80;89.40
16441;DHT22;8330;-33.858;151.184;2023-06-14T01:32:43;17.90;90.40
16441;DHT22;8330;-33.858;151.184;2023-06-14T01:35:16;17.90;89.60
16441;DHT22;8330;-33.858;151.184;2023-06-14T01:37:48;18.00;90.10
16441;DHT22;8330;-33.858;151.184;2023-06-14T01:40:24;18.00;90.30
16441;DHT22;8330;-33.858;151.184;2023-06-14T01:42:57;18.10;89.00
16441;DHT22;8330;-33.858;151.184;2023-06-14T01:45:29;18.00;87.40
16441;DHT22;8330;-33.858;151.184;2023-06-14T01:48:01;18.00;86.60
16441;DHT22;8330;-33.858;151.184;2023-06-14T01:50:34;18.00;83.60
16441;DHT22;8330;-33.858;151.184;2023-06-14T01:53:07;18.10;86.50
16441;DHT22;8330;-33.858;151.184;2023-06-14T01:55:44;18.20;82.20
16441;DHT22;8330;-33.858;151.184;2023-06-14T01:58:16;18.20;82.90
16441;DHT22;8330;-33.858;151.184;2023-06-14T02:00:49;18.30;85.00
16441;DHT22;8330;-33.858;151.184;2023-06-14T02:03:23;18.40;84.40
16441;DHT22;8330;-33.858;151.184;2023-06-14T02:05:54;18.30;79.70
16441;DHT22;8330;-33.858;151.184;2023-06-14T02:08:27;18.40;82.10
16441;DHT22;8330;-33.858;151.184;2023-06-14T02:11:01;18.50;80.50
16441;DHT22;8330;-33.858;151.184;2023-06-14T02:13:32;18.70;81.20
16441;DHT22;8330;-33.858;151.184;2023-06-14T02:16:05;18.70;77.70
16441;DHT22;8330;-33.858;151.184;2023-06-14T02:18:36;18.50;76.20
16441;DHT22;8330;-33.858;151.184;2023-06-14T02:21:12;18.50;76.80
16441;DHT22;8330;-33.858;151.184;2023-06-14T02:23:43;18.50;75.90
16441;DHT22;8330;-33.858;151.184;2023-06-14T02:26:18;18.50;75.40
16441;DHT22;8330;-33.858;151.184;2023-06-14T02:28:49;18.50;75.00
16441;DHT22;8330;-33.858;151.184;2023-06-14T02:31:22;18.60;74.70
16441;DHT22;8330;-33.858;151.184;2023-06-14T02:33:56;18.70;74.30
16441;DHT22;8330;-33.858;151.184;2023-06-14T02:36:27;18.70;72.80
16441;DHT22;8330;-33.858;151.184;2023-06-14T02:38:58;18.80;74.30
16441;DHT22;8330;-33.858;151.184;2023-06-14T02:41:36;18.80;69.70
16441;DHT22;8330;-33.858;151.184;2023-06-14T02:44:09;18.80;65.90
16441;DHT22;8330;-33.858;151.184;2023-06-14T02:46:41;18.70;64.70
16441;DHT22;8330;-33.858;151.184;2023-06-14T02:49:13;18.70;63.90
16441;DHT22;8330;-33.858;151.184;2023-06-14T02:51:44;18.60;62.40
16441;DHT22;8330;-33.858;151.184;2023-06-14T02:54:15;18.60;61.80
16441;DHT22;8330;-33.858;151.184;2023-06-14T02:56:49;18.50;62.30
16441;DHT22;8330;-33.858;151.184;2023-06-14T02:59:24;18.50;61.70
16441;DHT22;8330;-33.858;151.184;2023-06-14T03:01:55;18.60;61.70
16441;DHT22;8330;-33.858;151.184;2023-06-14T03:04:26;18.60;61.30
16441;DHT22;8330;-33.858;151.184;2023-06-14T03:07:05;18.80;60.70
16441;DHT22;8330;-33.858;151.184;2023-06-14T03:09:37;18.80;60.10
16441;DHT22;8330;-33.858;151.184;2023-06-14T03:12:11;18.80;60.10
16441;DHT22;8330;-33.858;151.184;2023-06-14T03:14:42;18.70;58.20
16441;DHT22;8330;-33.858;151.184;2023-06-14T03:17:14;18.80;57.70
16441;DHT22;8330;-33.858;151.184;2023-06-14T03:19:47;18.80;58.40
16441;DHT22;8330;-33.858;151.184;2023-06-14T03:22:19;18.90;58.30
16441;DHT22;8330;-33.858;151.184;2023-06-14T03:24:50;18.80;58.70
16441;DHT22;8330;-33.858;151.184;2023-06-14T03:27:24;18.80;58.30
16441;DHT22;8330;-33.858;151.184;2023-06-14T03:29:56;18.90;59.40
16441;DHT22;8330;-33.858;151.184;2023-06-14T03:32:27;18.90;58.80
16441;DHT22;8330;-33.858;151.184;2023-06-14T03:35:01;19.00;59.10
16441;DHT22;8330;-33.858;151.184;2023-06-14T03:37:32;19.10;58.70
16441;DHT22;8330;-33.858;151.184;2023-06-14T03:40:04;19.00;55.80
16441;DHT22;8330;-33.858;151.184;2023-06-14T03:42:39;18.90;54.90
16441;DHT22;8330;-33.858;151.184;2023-06-14T03:45:11;18.70;55.20
16441;DHT22;8330;-33.858;151.184;2023-06-14T03:47:43;18.90;56.50
16441;DHT22;8330;-33.858;151.184;2023-06-14T03:50:14;19.00;56.50
16441;DHT22;8330;-33.858;151.184;2023-06-14T03:52:46;19.00;56.00
16441;DHT22;8330;-33.858;151.184;2023-06-14T03:55:18;19.10;56.50
16441;DHT22;8330;-33.858;151.184;2023-06-14T03:57:55;19.10;56.80
16441;DHT22;8330;-33.858;151.184;2023-06-14T04:00:26;19.10;56.40
16441;DHT22;8330;-33.858;151.184;2023-06-14T04:02:57;19.10;56.20
16441;DHT22;8330;-33.858;151.184;2023-06-14T04:05:29;19.00;53.30
16441;DHT22;8330;-33.858;151.184;2023-06-14T04:08:00;18.90;53.30
16441;DHT22;8330;-33.858;151.184;2023-06-14T04:10:31;18.80;53.10
16441;DHT22;8330;-33.858;151.184;2023-06-14T04:13:05;18.70;53.50
16441;DHT22;8330;-33.858;151.184;2023-06-14T04:15:40;18.70;53.00
16441;DHT22;8330;-33.858;151.184;2023-06-14T04:18:13;18.80;52.50
16441;DHT22;8330;-33.858;151.184;2023-06-14T04:20:44;18.80;52.60
16441;DHT22;8330;-33.858;151.184;2023-06-14T04:23:16;18.70;53.40
16441;DHT22;8330;-33.858;151.184;2023-06-14T04:25:51;18.70;53.90
16441;DHT22;8330;-33.858;151.184;2023-06-14T04:28:31;18.60;52.80
16441;DHT22;8330;-33.858;151.184;2023-06-14T04:31:05;18.60;52.10
16441;DHT22;8330;-33.858;151.184;2023-06-14T04:33:36;18.60;52.70
16441;DHT22;8330;-33.858;151.184;2023-06-14T04:36:11;18.60;52.60
16441;DHT22;8330;-33.858;151.184;2023-06-14T04:38:45;18.70;53.10
16441;DHT22;8330;-33.858;151.184;2023-06-14T04:41:20;18.80;54.00
16441;DHT22;8330;-33.858;151.184;2023-06-14T04:43:58;18.90;54.40
16441;DHT22;8330;-33.858;151.184;2023-06-14T04:46:31;18.90;55.00
16441;DHT22;8330;-33.858;151.184;2023-06-14T04:49:14;18.80;54.10
16441;DHT22;8330;-33.858;151.184;2023-06-14T04:51:45;18.90;53.70
16441;DHT22;8330;-33.858;151.184;2023-06-14T04:54:18;18.90;53.90
16441;DHT22;8330;-33.858;151.184;2023-06-14T04:56:50;18.80;53.30
16441;DHT22;8330;-33.858;151.184;2023-06-14T04:59:28;18.80;53.00
16441;DHT22;8330;-33.858;151.184;2023-06-14T05:02:04;18.80;53.60
16441;DHT22;8330;-33.858;151.184;2023-06-14T05:04:40;18.90;53.10
16441;DHT22;8330;-33.858;151.184;2023-06-14T05:07:15;18.80;53.30
16441;DHT22;8330;-33.858;151.184;2023-06-14T05:09:46;18.90;52.60
16441;DHT22;8330;-33.858;151.184;2023-06-14T05:12:18;18.80;52.50
16441;DHT22;8330;-33.858;151.184;2023-06-14T05:14:51;18.80;52.60
16441;DHT22;8330;-33.858;151.184;2023-06-14T05:17:22;18.80;52.60
16441;DHT22;8330;-33.858;151.184;2023-06-14T05:19:55;18.70;52.30
16441;DHT22;8330;-33.858;151.184;2023-06-14T05:22:26;18.70;52.20
16441;DHT22;8330;-33.858;151.184;2023-06-14T05:24:58;18.80;52.80
16441;DHT22;8330;-33.858;151.184;2023-06-14T05:27:30;18.80;54.00
16441;DHT22;8330;-33.858;151.184;2023-06-14T05:30:06;18.90;53.60
16441;DHT22;8330;-33.858;151.184;2023-06-14T05:32:37;18.70;53.70
16441;DHT22;8330;-33.858;151.184;2023-06-14T05:35:09;18.70;53.90
16441;DHT22;8330;-33.858;151.184;2023-06-14T05:37:40;18.80;53.90
16441;DHT22;8330;-33.858;151.184;2023-06-14T05:40:12;18.70;53.60
16441;DHT22;8330;-33.858;151.184;2023-06-14T05:42:45;18.70;53.40
16441;DHT22;8330;-33.858;151.184;2023-06-14T05:45:20;18.70;52.50
16441;DHT22;8330;-33.858;151.184;2023-06-14T05:47:51;18.50;52.20
16441;DHT22;8330;-33.858;151.184;2023-06-14T05:50:22;18.60;52.80
16441;DHT22;8330;-33.858;151.184;2023-06-14T05:52:54;18.60;52.30
16441;DHT22;8330;-33.858;151.184;2023-06-14T05:55:25;18.50;52.30
16441;DHT22;8330;-33.858;151.184;2023-06-14T05:57:58;18.60;52.30
16441;DHT22;8330;-33.858;151.184;2023-06-14T06:00:33;18.60;52.40
16441;DHT22;8330;-33.858;151.184;2023-06-14T06:03:06;18.60;52.70
16441;DHT22;8330;-33.858;151.184;2023-06-14T06:05:39;18.50;52.60
16441;DHT22;8330;-33.858;151.184;2023-06-14T06:08:10;18.50;53.50
16441;DHT22;8330;-33.858;151.184;2023-06-14T06:10:41;18.40;53.10
16441;DHT22;8330;-33.858;151.184;2023-06-14T06:13:12;18.40;53.40
16441;DHT22;8330;-33.858;151.184;2023-06-14T06:15:46;18.40;53.30
16441;DHT22;8330;-33.858;151.184;2023-06-14T06:18:18;18.30;54.30
16441;DHT22;8330;-33.858;151.184;2023-06-14T06:20:53;18.40;54.20
16441;DHT22;8330;-33.858;151.184;2023-06-14T06:23:25;18.50;53.10
16441;DHT22;8330;-33.858;151.184;2023-06-14T06:25:56;18.40;52.90
16441;DHT22;8330;-33.858;151.184;2023-06-14T06:28:27;18.50;53.40
16441;DHT22;8330;-33.858;151.184;2023-06-14T06:31:03;18.30;54.20
16441;DHT22;8330;-33.858;151.184;2023-06-14T06:33:36;18.20;54.30
16441;DHT22;8330;-33.858;151.184;2023-06-14T06:36:07;18.20;55.10
16441;DHT22;8330;-33.858;151.184;2023-06-14T06:38:38;18.10;55.00
16441;DHT22;8330;-33.858;151.184;2023-06-14T06:41:09;18.10;55.00
16441;DHT22;8330;-33.858;151.184;2023-06-14T06:43:43;18.00;55.50
16441;DHT22;8330;-33.858;151.184;2023-06-14T06:46:16;17.90;55.20
16441;DHT22;8330;-33.858;151.184;2023-06-14T06:48:49;17.80;55.40
16441;DHT22;8330;-33.858;151.184;2023-06-14T06:51:20;17.80;54.80
16441;DHT22;8330;-33.858;151.184;2023-06-14T06:53:54;17.70;54.20
16441;DHT22;8330;-33.858;151.184;2023-06-14T06:56:25;17.70;54.20
16441;DHT22;8330;-33.858;151.184;2023-06-14T06:58:57;17.50;54.30
16441;DHT22;8330;-33.858;151.184;2023-06-14T07:01:32;17.50;54.60
16441;DHT22;8330;-33.858;151.184;2023-06-14T07:04:07;17.50;55.00
16441;DHT22;8330;-33.858;151.184;2023-06-14T07:06:37;17.60;55.90
16441;DHT22;8330;-33.858;151.184;2023-06-14T07:09:08;17.50;55.80
16441;DHT22;8330;-33.858;151.184;2023-06-14T07:11:43;17.40;55.80
16441;DHT22;8330;-33.858;151.184;2023-06-14T07:14:14;17.30;55.70
16441;DHT22;8330;-33.858;151.184;2023-06-14T07:16:50;17.30;56.20
16441;DHT22;8330;-33.858;151.184;2023-06-14T07:19:21;17.30;56.10
16441;DHT22;8330;-33.858;151.184;2023-06-14T07:21:52;17.20;56.60
16441;DHT22;8330;-33.858;151.184;2023-06-14T07:24:25;17.10;57.40
16441;DHT22;8330;-33.858;151.184;2023-06-14T07:26:57;17.00;57.80
16441;DHT22;8330;-33.858;151.184;2023-06-14T07:29:29;17.00;58.20
16441;DHT22;8330;-33.858;151.184;2023-06-14T07:32:04;17.00;58.50
16441;DHT22;8330;-33.858;151.184;2023-06-14T07:34:37;16.90;58.00
16441;DHT22;8330;-33.858;151.184;2023-06-14T07:37:08;16.90;59.00
16441;DHT22;8330;-33.858;151.184;2023-06-14T07:39:40;16.90;58.50
16441;DHT22;8330;-33.858;151.184;2023-06-14T07:42:13;16.80;58.00
16441;DHT22;8330;-33.858;151.184;2023-06-14T07:44:43;16.70;58.20
16441;DHT22;8330;-33.858;151.184;2023-06-14T07:47:22;16.60;58.40
16441;DHT22;8330;-33.858;151.184;2023-06-14T07:49:53;16.60;58.80
16441;DHT22;8330;-33.858;151.184;2023-06-14T07:52:24;16.60;58.90
16441;DHT22;8330;-33.858;151.184;2023-06-14T07:54:54;16.50;59.30
16441;DHT22;8330;-33.858;151.184;2023-06-14T07:57:25;16.50;59.00
16441;DHT22;8330;-33.858;151.184;2023-06-14T07:59:57;16.50;59.40
16441;DHT22;8330;-33.858;151.184;2023-06-14T08:02:29;16.30;59.60
16441;DHT22;8330;-33.858;151.184;2023-06-14T08:05:01;16.20;60.20
16441;DHT22;8330;-33.858;151.184;2023-06-14T08:07:32;16.30;60.70
16441;DHT22;8330;-33.858;151.184;2023-06-14T08:10:03;16.20;60.90
16441;DHT22;8330;-33.858;151.184;2023-06-14T08:12:34;16.30;60.80
16441;DHT22;8330;-33.858;151.184;2023-06-14T08:15:05;16.20;61.20
16441;DHT22;8330;-33.858;151.184;2023-06-14T08:17:41;16.20;61.60
16441;DHT22;8330;-33.858;151.184;2023-06-14T08:20:13;16.20;61.70
16441;DHT22;8330;-33.858;151.184;2023-06-14T08:22:47;16.20;62.30
16441;DHT22;8330;-33.858;151.184;2023-06-14T08:25:23;16.10;62.50
16441;DHT22;8330;-33.858;151.184;2023-06-14T08:27:53;15.90;63.60
16441;DHT22;8330;-33.858;151.184;2023-06-14T08:30:24;15.90;64.20
16441;DHT22;8330;-33.858;151.184;2023-06-14T08:32:57;15.90;64.40
16441;DHT22;8330;-33.858;151.184;2023-06-14T08:35:29;15.90;64.50
16441;DHT22;8330;-33.858;151.184;2023-06-14T08:38:00;15.90;64.60
16441;DHT22;8330;-33.858;151.184;2023-06-14T08:40:31;15.90;65.00
16441;DHT22;8330;-33.858;151.184;2023-06-14T08:43:07;15.90;65.20
16441;DHT22;8330;-33.858;151.184;2023-06-14T08:45:38;15.90;65.80
16441;DHT22;8330;-33.858;151.184;2023-06-14T08:48:12;16.00;65.90
16441;DHT22;8330;-33.858;151.184;2023-06-14T08:50:46;16.00;67.00
16441;DHT22;8330;-33.858;151.184;2023-06-14T08:53:18;15.90;67.40
16441;DHT22;8330;-33.858;151.184;2023-06-14T08:55:49;16.00;66.70
16441;DHT22;8330;-33.858;151.184;2023-06-14T08:58:21;15.90;66.70
16441;DHT22;8330;-33.858;151.184;2023-06-14T09:00:52;15.90;67.20
16441;DHT22;8330;-33.858;151.184;2023-06-14T09:03:25;15.90;67.40
16441;DHT22;8330;-33.858;151.184;2023-06-14T09:05:58;15.80;68.50
16441;DHT22;8330;-33.858;151.184;2023-06-14T09:08:31;15.80;68.70
16441;DHT22;8330;-33.858;151.184;2023-06-14T09:11:03;15.90;68.70
16441;DHT22;8330;-33.858;151.184;2023-06-14T09:13:34;15.70;69.00
16441;DHT22;8330;-33.858;151.184;2023-06-14T09:16:06;15.60;68.30
16441;DHT22;8330;-33.858;151.184;2023-06-14T09:18:42;15.50;69.50
16441;DHT22;8330;-33.858;151.184;2023-06-14T09:21:16;15.40;70.00
16441;DHT22;8330;-33.858;151.184;2023-06-14T09:23:49;15.30;70.00
16441;DHT22;8330;-33.858;151.184;2023-06-14T09:26:20;15.30;70.50
16441;DHT22;8330;-33.858;151.184;2023-06-14T09:28:51;15.30;70.60
16441;DHT22;8330;-33.858;151.184;2023-06-14T09:31:23;15.20;70.50
16441;DHT22;8330;-33.858;151.184;2023-06-14T09:34:01;15.20;70.80
16441;DHT22;8330;-33.858;151.184;2023-06-14T09:36:33;15.30;70.40
16441;DHT22;8330;-33.858;151.184;2023-06-14T09:39:06;15.20;71.10
16441;DHT22;8330;-33.858;151.184;2023-06-14T09:41:37;15.20;70.20
16441;DHT22;8330;-33.858;151.184;2023-06-14T09:44:09;15.20;70.60
16441;DHT22;8330;-33.858;151.184;2023-06-14T09:46:40;15.10;70.50
16441;DHT22;8330;-33.858;151.184;2023-06-14T09:49:13;15.20;71.50
16441;DHT22;8330;-33.858;151.184;2023-06-14T09:51:45;15.20;70.70
16441;DHT22;8330;-33.858;151.184;2023-06-14T09:54:20;15.10;70.80
16441;DHT22;8330;-33.858;151.184;2023-06-14T09:56:53;15.10;71.00
16441;DHT22;8330;-33.858;151.184;2023-06-14T09:59:28;15.10;71.20
16441;DHT22;8330;-33.858;151.184;2023-06-14T10:02:04;15.00;71.60
16441;DHT22;8330;-33.858;151.184;2023-06-14T10:04:41;15.00;71.80
16441;DHT22;8330;-33.858;151.184;2023-06-14T10:07:20;15.00;72.50
16441;DHT22;8330;-33.858;151.184;2023-06-14T10:09:52;15.00;72.90
16441;DHT22;8330;-33.858;151.184;2023-06-14T10:12:23;15.00;73.00
16441;DHT22;8330;-33.858;151.184;2023-06-14T10:14:54;15.00;73.20
16441;DHT22;8330;-33.858;151.184;2023-06-14T10:17:32;15.00;73.80
16441;DHT22;8330;-33.858;151.184;2023-06-14T10:20:18;14.90;73.70
16441;DHT22;8330;-33.858;151.184;2023-06-14T10:22:58;15.00;73.60
16441;DHT22;8330;-33.858;151.184;2023-06-14T10:25:31;15.00;74.10
16441;DHT22;8330;-33.858;151.184;2023-06-14T10:28:16;14.90;74.50
16441;DHT22;8330;-33.858;151.184;2023-06-14T10:31:04;14.90;74.90
16441;DHT22;8330;-33.858;151.184;2023-06-14T10:33:35;14.90;75.00
16441;DHT22;8330;-33.858;151.184;2023-06-14T10:36:26;14.80;75.70
16441;DHT22;8330;-33.858;151.184;2023-06-14T10:39:05;14.70;76.50
16441;DHT22;8330;-33.858;151.184;2023-06-14T10:41:42;14.70;77.00
16441;DHT22;8330;-33.858;151.184;2023-06-14T10:44:49;14.70;77.60
16441;DHT22;8330;-33.858;151.184;2023-06-14T10:47:26;14.60;78.30
16441;DHT22;8330;-33.858;151.184;2023-06-14T10:49:58;14.70;78.70
16441;DHT22;8330;-33.858;151.184;2023-06-14T10:52:38;14.60;78.60
16441;DHT22;8330;-33.858;151.184;2023-06-14T10:55:10;14.60;78.90
16441;DHT22;8330;-33.858;151.184;2023-06-14T10:57:43;14.60;79.30
16441;DHT22;8330;-33.858;151.184;2023-06-14T11:00:20;14.60;79.40
16441;DHT22;8330;-33.858;151.184;2023-06-14T11:03:27;14.60;79.60
16441;DHT22;8330;-33.858;151.184;2023-06-14T11:06:01;14.60;
16441;DHT22;8330;-33.858;151.184;2023-06-14T11:09:15;14.60;80.90
16441;DHT22;8330;-33.858;151.184;2023-06-14T11:11:52;14.50;81.80
16441;DHT22;8330;-33.858;151.184;2023-06-14T11:14:24;14.50;83.10
16441;DHT22;8330;-33.858;151.184;2023-06-14T11:16:59;14.40;84.20
16441;DHT22;8330;-33.858;151.184;2023-06-14T11:19:31;14.30;84.70
16441;DHT22;8330;-33.858;151.184;2023-06-14T11:22:04;14.30;85.30
16441;DHT22;8330;-33.858;151.184;2023-06-14T11:24:38;14.40;85.70
16441;DHT22;8330;-33.858;151.184;2023-06-14T11:27:10;14.40;87.10
16441;DHT22;8330;-33.858;151.184;2023-06-14T11:29:48;14.30;87.50
16441;DHT22;8330;-33.858;151.184;2023-06-14T11:32:21;14.30;88.80
16441;DHT22;8330;-33.858;151.184;2023-06-14T11:34:56;14.20;89.20
16441;DHT22;8330;-33.858;151.184;2023-06-14T11:37:28;14.10;90.40
16441;DHT22;8330;-33.858;151.184;2023-06-14T11:40:01;14.00;90.50
16441;DHT22;8330;-33.858;151.184;2023-06-14T11:42:36;14.00;90.80
16441;DHT22;8330;-33.858;151.184;2023-06-14T11:45:09;14.00;91.10
16441;DHT22;8330;-33.858;151.184;2023-06-14T11:47:41;14.10;91.30
16441;DHT22;8330;-33.858;151.184;2023-06-14T11:50:15;14.10;91.60
16441;DHT22;8330;-33.858;151.184;2023-06-14T11:52:56;14.10;92.00
16441;DHT22;8330;-33.858;151.184;2023-06-14T11:55:31;14.00;92.10
16441;DHT22;8330;-33.858;151.184;2023-06-14T11:58:02;14.00;92.70
16441;DHT22;8330;-33.858;151.184;2023-06-14T12:00:35;13.90;92.70
16441;DHT22;8330;-33.858;151.184;2023-06-14T12:03:08;13.90;93.00
16441;DHT22;8330;-33.858;151.184;2023-06-14T12:05:40;13.80;93.80
16441;DHT22;8330;-33.858;151.184;2023-06-14T12:08:11;13.80;94.50
16441;DHT22;8330;-33.858;151.184;2023-06-14T12:10:50;13.80;94.20
16441;DHT22;8330;-33.858;151.184;2023-06-14T12:13:24;13.90;94.80
16441;DHT22;8330;-33.858;151.184;2023-06-14T12:15:57;13.80;95.30
16441;DHT22;8330;-33.858;151.184;2023-06-14T12:18:36;13.90;95.20
16441;DHT22;8330;-33.858;151.184;2023-06-14T12:21:07;13.90;95.40
16441;DHT22;8330;-33.858;151.184;2023-06-14T12:23:46;13.70;96.30
16441;DHT22;8330;-33.858;151.184;2023-06-14T12:26:21;13.70;97.30
16441;DHT22;8330;-33.858;151.184;2023-06-14T12:28:53;13.80;98.20
16441;DHT22;8330;-33.858;151.184;2023-06-14T12:31:26;13.80;98.40
16441;DHT22;8330;-33.858;151.184;2023-06-14T12:33:57;13.80;99.10
16441;DHT22;8330;-33.858;151.184;2023-06-14T12:36:28;13.80;98.60
16441;DHT22;8330;-33.858;151.184;2023-06-14T12:39:00;13.80;98.80
16441;DHT22;8330;-33.858;151.184;2023-06-14T12:41:40;13.80;98.60
16441;DHT22;8330;-33.858;151.184;2023-06-14T12:44:21;13.80;98.70
16441;DHT22;8330;-33.858;151.184;2023-06-14T12:46:52;13.80;98.90
16441;DHT22;8330;-33.858;151.184;2023-06-14T12:49:23;13.80;99.20
16441;DHT22;8330;-33.858;151.184;2023-06-14T12:51:54;13.70;99.70
16441;DHT22;8330;-33.858;151.184;2023-06-14T12:54:28;13.80;99.90
16441;DHT22;8330;-33.858;151.184;2023-06-14T12:57:00;13.80;99.90
16441;DHT22;8330;-33.858;151.184;2023-06-14T12:59:31;13.80;99.90
16441;DHT22;8330;-33.858;151.184;2023-06-14T13:02:13;13.80;99.90
16441;DHT22;8330;-33.858;151.184;2023-06-14T13:04:44;13.80;99.90
16441;DHT22;8330;-33.858;151.184;2023-06-14T13:07:15;13.60;99.90
16441;DHT22;8330;-33.858;151.184;2023-06-14T13:09:51;13.70;99.90
16441;DHT22;8330;-33.858;151.184;2023-06-14T13:12:26;13.60;99.90
16441;DHT22;8330;-33.858;151.184;2023-06-14T13:14:59;13.50;99.90
16441;DHT22;8330;-33.858;151.184;2023-06-14T13:17:30;13.50;99.90
16441;DHT22;8330;-33.858;151.184;2023-06-14T13:20:31;13.40;99.90
16441;DHT22;8330;-33.858;151.184;2023-06-14T13:23:05;13.50;99.90
16441;DHT22;8330;-33.858;151.184;2023-06-14T13:25:37;13.60;99.90
16441;DHT22;8330;-33.858;151.184;2023-06-14T13:28:10;13.50;99.90
16441;DHT22;8330;-33.858;151.184;2023-06-14T13:30:41;13.50;99.90
16441;DHT22;8330;-33.858;151.184;2023-06-14T13:33:13;13.40;99.90
16441;DHT22;8330;-33.858;151.184;2023-06-14T13:35:44;13.40;99.90
16441;DHT22;8330;-33.858;151.184;2023-06-14T13:38:16;13.40;99.90
16441;DHT22;8330;-33.858;151.184;2023-06-14T13:40:51;13.40;99.90
16441;DHT22;8330;-33.858;151.184;2023-06-14T13:43:24;13.60;99.90
16441;DHT22;8330;-33.858;151.184;2023-06-14T13:45:55;13.50;99.90
16441;DHT22;8330;-33.858;151.184;2023-06-14T13:48:26;13.50;99.90
16441;DHT22;8330;-33.858;151.184;2023-06-14T13:50:59;13.50;99.90
16441;DHT22;8330;-33.858;151.184;2023-06-14T13:53:32;13.50;99.90
16441;DHT22;8330;-33.858;151.184;2023-06-14T13:56:03;13.50;99.90
16441;DHT22;8330;-33.858;151.184;2023-06-14T13:58:37;13.50;99.90
16441;DHT22;8330;-33.858;151.184;2023-06-14T14:01:08;13.40;99.90
16441;DHT22;8330;-33.858;151.184;2023-06-14T14:03:40;13.40;99.90
16441;DHT22;8330;-33.858;151.184;2023-06-14T14:06:11;13.40;99.90
16441;DHT22;8330;-33.858;151.184;2023-06-14T14:08:44;13.40;99.90
16441;DHT22;8330;-33.858;151.184;2023-06-14T14:11:15;13.40;99.90
16441;DHT22;8330;-33.858;151.184;2023-06-14T14:13:48;13.30;99.90
16441;DHT22;8330;-33.858;151.184;2023-06-14T14:16:19;13.20;99.90
16441;DHT22;8330;-33.858;151.184;2023-06-14T14:18:51;13.20;99.90
16441;DHT22;8330;-33.858;151.184;2023-06-14T14:21:22;13.10;99.90
16441;DHT22;8330;-33.858;151.184;2023-06-14T14:23:53;13.10;99.90
16441;DHT22;8330;-33.858;151.184;2023-06-14T14:26:24;13.10;99.90
16441;DHT22;8330;-33.858;151.184;2023-06-14T14:28:57;13.10;99.90
16441;DHT22;8330;-33.858;151.184;2023-06-14T14:31:28;13.20;99.90
16441;DHT22;8330;-33.858;151.184;2023-06-14T14:33:59;13.10;99.90
16441;DHT22;8330;-33.858;151.184;2023-06-14T14:36:30;13.10;99.90
16441;DHT22;8330;-33.858;151.184;2023-06-14T14:39:01;13.10;99.90
16441;DHT22;8330;-33.858;151.184;2023-06-14T14:41:32;13.10;99.90
16441;DHT22;8330;-33.858;151.184;2023-06-14T14:44:07;13.00;99.90
16441;DHT22;8330;-33.858;151.184;2023-06-14T14:46:38;13.00;99.90
16441;DHT22;8330;-33.858;151.184;2023-06-14T14:49:09;13.10;99.90
16441;DHT22;8330;-33.858;151.184;2023-06-14T14:51:40;13.10;99.90
16441;DHT22;8330;-33.858;151.184;2023-06-14T14:54:12;13.10;99.90
16441;DHT22;8330;-33.858;151.184;2023-06-14T14:56:43;13.10;99.90
16441;DHT22;8330;-33.858;151.184;2023-06-14T14:59:15;13.20;99.90
16441;DHT22;8330;-33.858;151.184;2023-06-14T15:01:46;13.20;99.90
16441;DHT22;8330;-33.858;151.184;2023-06-14T15:04:18;13.20;99.90
16441;DHT22;8330;-33.858;151.184;2023-06-14T15:06:49;13.20;99.90
16441;DHT22;8330;-33.858;151.184;2023-06-14T15:09:20;13.20;99.90
16441;DHT22;8330;-33.858;151.184;2023-06-14T15:11:51;13.10;99.90
16441;DHT22;8330;-33.858;151.184;2023-06-14T15:14:25;13.10;99.90
16441;DHT22;8330;-33.858;151.184;2023-06-14T15:16:56;13.10;99.90
16441;DHT22;8330;-33.858;151.184;2023-06-14T15:19:29;13.10;99.90
16441;DHT22;8330;-33.858;151.184;2023-06-14T15:22:02;13.00;99.90
16441;DHT22;8330;-33.858;151.184;2023-06-14T15:24:33;13.10;99.90
16441;DHT22;8330;-33.858;151.184;2023-06-14T15:27:04;13.10;99.90
16441;DHT22;8330;-33.858;151.184;2023-06-14T15:29:37;13.20;99.90
16441;DHT22;8330;-33.858;151.184;2023-06-14T15:32:09;13.10;99.90
16441;DHT22;8330;-33.858;151.184;2023-06-14T15:34:42;13.10;99.90
16441;DHT22;8330;-33.858;151.184;2023-06-14T15:37:26;13.10;99.90
16441;DHT22;8330;-33.858;151.184;2023-06-14T15:39:59;13.20;99.90